Chester, Montana
Current Conditions -  °F | °C
As of 1:53 AM on Thursday 27 Nov 2014 (Local Time) from KHVR Reporting Station
Overcast Overcast  
Wind Chill: 25°   Ceiling: 6000
Heat Index: 30°   Visibility: 10mi
Dew Point: 27°   Wind: 5mph
Humidity: 88%   Direction: 130°SE
Pressure: 29.97"   Gusts: NA
Location:  48.51°N, 110.97°W
Report Text: KHVR 270853Z AUTO 13004KT 10SM BKN060 OVC075 M01/M03 A2997 RMK AO2 SLP176 T10111028 56022
Loading
Personal Weather Stations






























Interactive Weather Map New forecast layout! Learn more

10-Day Weather Forecast

Advertisements
Track Severe Weather on mobile